sensor_id;sensor_type;location;lat;lon;timestamp;P1;durP1;ratioP1;P2;durP2;ratioP2
15833;SDS011;8017;50.812;4.934;2022-12-29T00:01:33;1.53;;;1.20;;
15833;SDS011;8017;50.812;4.934;2022-12-29T00:04:35;1.37;;;1.17;;
15833;SDS011;8017;50.812;4.934;2022-12-29T00:07:37;0.80;;;0.80;;
15833;SDS011;8017;50.812;4.934;2022-12-29T00:10:40;2.93;;;1.07;;
15833;SDS011;8017;50.812;4.934;2022-12-29T00:13:42;1.63;;;0.90;;
15833;SDS011;8017;50.812;4.934;2022-12-29T00:17:02;2.77;;;1.00;;
15833;SDS011;8017;50.812;4.934;2022-12-29T00:20:05;0.80;;;0.80;;
15833;SDS011;8017;50.812;4.934;2022-12-29T00:23:25;1.77;;;0.90;;
15833;SDS011;8017;50.812;4.934;2022-12-29T00:26:46;1.57;;;1.00;;
15833;SDS011;8017;50.812;4.934;2022-12-29T00:30:07;2.03;;;1.00;;
15833;SDS011;8017;50.812;4.934;2022-12-29T00:33:29;2.43;;;1.03;;
15833;SDS011;8017;50.812;4.934;2022-12-29T00:36:49;2.00;;;1.03;;
15833;SDS011;8017;50.812;4.934;2022-12-29T00:39:51;2.13;;;1.00;;
15833;SDS011;8017;50.812;4.934;2022-12-29T00:43:12;1.50;;;0.90;;
15833;SDS011;8017;50.812;4.934;2022-12-29T00:46:31;1.90;;;1.03;;
15833;SDS011;8017;50.812;4.934;2022-12-29T00:49:33;1.27;;;0.90;;
15833;SDS011;8017;50.812;4.934;2022-12-29T00:52:35;1.73;;;1.20;;
15833;SDS011;8017;50.812;4.934;2022-12-29T00:55:37;1.83;;;0.83;;
15833;SDS011;8017;50.812;4.934;2022-12-29T00:58:40;4.80;;;1.10;;
15833;SDS011;8017;50.812;4.934;2022-12-29T01:01:42;3.57;;;1.20;;
15833;SDS011;8017;50.812;4.934;2022-12-29T01:04:44;2.53;;;1.00;;
15833;SDS011;8017;50.812;4.934;2022-12-29T01:07:46;3.23;;;1.10;;
15833;SDS011;8017;50.812;4.934;2022-12-29T01:10:57;2.87;;;1.00;;
15833;SDS011;8017;50.812;4.934;2022-12-29T01:14:00;2.90;;;1.17;;
15833;SDS011;8017;50.812;4.934;2022-12-29T01:17:01;2.53;;;1.00;;
15833;SDS011;8017;50.812;4.934;2022-12-29T01:20:04;1.37;;;1.27;;
15833;SDS011;8017;50.812;4.934;2022-12-29T01:23:07;2.37;;;1.07;;
15833;SDS011;8017;50.812;4.934;2022-12-29T01:26:09;2.53;;;1.00;;
15833;SDS011;8017;50.812;4.934;2022-12-29T01:29:13;2.30;;;0.90;;
15833;SDS011;8017;50.812;4.934;2022-12-29T01:32:15;2.23;;;1.00;;
15833;SDS011;8017;50.812;4.934;2022-12-29T01:35:17;2.47;;;1.20;;
15833;SDS011;8017;50.812;4.934;2022-12-29T01:38:19;2.27;;;1.00;;
15833;SDS011;8017;50.812;4.934;2022-12-29T01:41:21;3.50;;;1.40;;
15833;SDS011;8017;50.812;4.934;2022-12-29T01:44:49;4.20;;;1.33;;
15833;SDS011;8017;50.812;4.934;2022-12-29T01:47:54;2.67;;;1.33;;
15833;SDS011;8017;50.812;4.934;2022-12-29T01:50:58;4.07;;;1.30;;
15833;SDS011;8017;50.812;4.934;2022-12-29T01:54:01;2.93;;;1.23;;
15833;SDS011;8017;50.812;4.934;2022-12-29T01:57:08;2.60;;;1.37;;
15833;SDS011;8017;50.812;4.934;2022-12-29T02:00:15;3.77;;;1.30;;
15833;SDS011;8017;50.812;4.934;2022-12-29T02:03:17;5.17;;;1.60;;
15833;SDS011;8017;50.812;4.934;2022-12-29T02:06:22;3.97;;;1.10;;
15833;SDS011;8017;50.812;4.934;2022-12-29T02:09:27;2.73;;;1.13;;
15833;SDS011;8017;50.812;4.934;2022-12-29T02:12:29;1.93;;;1.00;;
15833;SDS011;8017;50.812;4.934;2022-12-29T02:15:34;3.20;;;0.97;;
15833;SDS011;8017;50.812;4.934;2022-12-29T02:18:46;1.77;;;1.00;;
15833;SDS011;8017;50.812;4.934;2022-12-29T02:22:07;2.33;;;0.93;;
15833;SDS011;8017;50.812;4.934;2022-12-29T02:25:39;2.33;;;1.00;;
15833;SDS011;8017;50.812;4.934;2022-12-29T02:28:54;2.23;;;0.90;;
15833;SDS011;8017;50.812;4.934;2022-12-29T02:32:30;3.20;;;1.07;;
15833;SDS011;8017;50.812;4.934;2022-12-29T02:35:42;3.13;;;1.07;;
15833;SDS011;8017;50.812;4.934;2022-12-29T02:38:51;1.80;;;0.93;;
15833;SDS011;8017;50.812;4.934;2022-12-29T02:42:02;2.23;;;1.00;;
15833;SDS011;8017;50.812;4.934;2022-12-29T02:45:10;1.47;;;1.13;;
15833;SDS011;8017;50.812;4.934;2022-12-29T02:48:22;1.83;;;1.00;;
15833;SDS011;8017;50.812;4.934;2022-12-29T02:51:29;1.30;;;0.87;;
15833;SDS011;8017;50.812;4.934;2022-12-29T02:54:36;0.70;;;0.70;;
15833;SDS011;8017;50.812;4.934;2022-12-29T02:57:44;1.37;;;0.90;;
15833;SDS011;8017;50.812;4.934;2022-12-29T03:00:49;1.37;;;0.93;;
15833;SDS011;8017;50.812;4.934;2022-12-29T03:04:12;1.00;;;0.90;;
15833;SDS011;8017;50.812;4.934;2022-12-29T03:07:26;2.10;;;0.80;;
15833;SDS011;8017;50.812;4.934;2022-12-29T03:10:37;1.77;;;0.80;;
15833;SDS011;8017;50.812;4.934;2022-12-29T03:13:47;1.93;;;1.00;;
15833;SDS011;8017;50.812;4.934;2022-12-29T03:17:13;2.07;;;0.80;;
15833;SDS011;8017;50.812;4.934;2022-12-29T03:20:23;1.67;;;0.93;;
15833;SDS011;8017;50.812;4.934;2022-12-29T03:23:29;2.90;;;1.00;;
15833;SDS011;8017;50.812;4.934;2022-12-29T03:26:32;3.10;;;1.13;;
15833;SDS011;8017;50.812;4.934;2022-12-29T03:29:38;2.57;;;1.10;;
15833;SDS011;8017;50.812;4.934;2022-12-29T03:32:44;1.33;;;0.60;;
15833;SDS011;8017;50.812;4.934;2022-12-29T03:35:49;3.20;;;0.70;;
15833;SDS011;8017;50.812;4.934;2022-12-29T03:38:57;2.90;;;1.20;;
15833;SDS011;8017;50.812;4.934;2022-12-29T03:42:04;3.73;;;1.10;;
15833;SDS011;8017;50.812;4.934;2022-12-29T03:45:09;3.03;;;0.90;;
15833;SDS011;8017;50.812;4.934;2022-12-29T03:48:12;1.77;;;0.80;;
15833;SDS011;8017;50.812;4.934;2022-12-29T03:51:15;2.57;;;1.27;;
15833;SDS011;8017;50.812;4.934;2022-12-29T03:54:17;3.50;;;1.00;;
15833;SDS011;8017;50.812;4.934;2022-12-29T03:57:19;2.20;;;0.97;;
15833;SDS011;8017;50.812;4.934;2022-12-29T04:00:21;3.57;;;0.97;;
15833;SDS011;8017;50.812;4.934;2022-12-29T04:03:23;1.73;;;0.87;;
15833;SDS011;8017;50.812;4.934;2022-12-29T04:06:26;3.70;;;0.90;;
15833;SDS011;8017;50.812;4.934;2022-12-29T04:09:28;2.43;;;0.90;;
15833;SDS011;8017;50.812;4.934;2022-12-29T04:12:31;1.47;;;0.70;;
15833;SDS011;8017;50.812;4.934;2022-12-29T04:15:33;1.70;;;0.70;;
15833;SDS011;8017;50.812;4.934;2022-12-29T04:18:36;4.60;;;1.00;;
15833;SDS011;8017;50.812;4.934;2022-12-29T04:21:39;2.33;;;0.97;;
15833;SDS011;8017;50.812;4.934;2022-12-29T04:24:41;1.93;;;0.90;;
15833;SDS011;8017;50.812;4.934;2022-12-29T04:27:43;2.70;;;0.97;;
15833;SDS011;8017;50.812;4.934;2022-12-29T04:30:45;2.50;;;0.73;;
15833;SDS011;8017;50.812;4.934;2022-12-29T04:33:47;3.27;;;0.90;;
15833;SDS011;8017;50.812;4.934;2022-12-29T04:36:51;1.17;;;0.70;;
15833;SDS011;8017;50.812;4.934;2022-12-29T04:39:53;3.93;;;1.00;;
15833;SDS011;8017;50.812;4.934;2022-12-29T04:42:54;2.57;;;1.00;;
15833;SDS011;8017;50.812;4.934;2022-12-29T04:45:56;2.87;;;1.00;;
15833;SDS011;8017;50.812;4.934;2022-12-29T04:48:58;4.43;;;1.10;;
15833;SDS011;8017;50.812;4.934;2022-12-29T04:52:06;2.60;;;1.00;;
15833;SDS011;8017;50.812;4.934;2022-12-29T04:55:08;3.87;;;1.23;;
15833;SDS011;8017;50.812;4.934;2022-12-29T04:58:10;5.17;;;1.20;;
15833;SDS011;8017;50.812;4.934;2022-12-29T05:01:12;5.60;;;0.80;;
15833;SDS011;8017;50.812;4.934;2022-12-29T05:04:14;4.20;;;1.30;;
15833;SDS011;8017;50.812;4.934;2022-12-29T05:07:17;4.07;;;1.20;;
15833;SDS011;8017;50.812;4.934;2022-12-29T05:10:19;2.47;;;1.10;;
15833;SDS011;8017;50.812;4.934;2022-12-29T05:13:21;6.77;;;1.00;;
15833;SDS011;8017;50.812;4.934;2022-12-29T05:16:23;2.73;;;1.13;;
15833;SDS011;8017;50.812;4.934;2022-12-29T05:19:25;7.93;;;1.30;;
15833;SDS011;8017;50.812;4.934;2022-12-29T05:22:28;3.33;;;1.30;;
15833;SDS011;8017;50.812;4.934;2022-12-29T05:25:30;7.00;;;1.13;;
15833;SDS011;8017;50.812;4.934;2022-12-29T05:28:32;5.90;;;1.57;;
15833;SDS011;8017;50.812;4.934;2022-12-29T05:31:34;4.00;;;1.00;;
15833;SDS011;8017;50.812;4.934;2022-12-29T05:34:36;5.70;;;1.43;;
15833;SDS011;8017;50.812;4.934;2022-12-29T05:37:39;3.17;;;1.00;;
15833;SDS011;8017;50.812;4.934;2022-12-29T05:40:41;5.83;;;1.17;;
15833;SDS011;8017;50.812;4.934;2022-12-29T05:43:43;3.90;;;1.00;;
15833;SDS011;8017;50.812;4.934;2022-12-29T05:46:45;4.27;;;1.20;;
15833;SDS011;8017;50.812;4.934;2022-12-29T05:49:47;5.20;;;1.47;;
15833;SDS011;8017;50.812;4.934;2022-12-29T05:52:51;4.40;;;1.20;;
15833;SDS011;8017;50.812;4.934;2022-12-29T05:55:52;7.87;;;1.63;;
15833;SDS011;8017;50.812;4.934;2022-12-29T05:58:54;6.03;;;1.50;;
15833;SDS011;8017;50.812;4.934;2022-12-29T06:01:56;4.33;;;1.27;;
15833;SDS011;8017;50.812;4.934;2022-12-29T06:04:58;7.53;;;1.97;;
15833;SDS011;8017;50.812;4.934;2022-12-29T06:08:01;5.87;;;1.77;;
15833;SDS011;8017;50.812;4.934;2022-12-29T06:11:04;12.00;;;2.03;;
15833;SDS011;8017;50.812;4.934;2022-12-29T06:14:06;4.73;;;1.63;;
15833;SDS011;8017;50.812;4.934;2022-12-29T06:17:07;9.67;;;1.83;;
15833;SDS011;8017;50.812;4.934;2022-12-29T06:20:10;6.80;;;1.50;;
15833;SDS011;8017;50.812;4.934;2022-12-29T06:23:13;7.93;;;1.50;;
15833;SDS011;8017;50.812;4.934;2022-12-29T06:26:16;5.80;;;1.77;;
15833;SDS011;8017;50.812;4.934;2022-12-29T06:29:18;10.40;;;1.70;;
15833;SDS011;8017;50.812;4.934;2022-12-29T06:32:20;4.33;;;1.43;;
15833;SDS011;8017;50.812;4.934;2022-12-29T06:35:22;6.13;;;1.70;;
15833;SDS011;8017;50.812;4.934;2022-12-29T06:38:25;9.87;;;2.20;;
15833;SDS011;8017;50.812;4.934;2022-12-29T06:41:27;5.00;;;1.20;;
15833;SDS011;8017;50.812;4.934;2022-12-29T06:44:29;5.20;;;1.70;;
15833;SDS011;8017;50.812;4.934;2022-12-29T06:47:31;5.90;;;1.50;;
15833;SDS011;8017;50.812;4.934;2022-12-29T06:50:33;5.17;;;1.50;;
15833;SDS011;8017;50.812;4.934;2022-12-29T06:53:36;6.80;;;1.77;;
15833;SDS011;8017;50.812;4.934;2022-12-29T06:56:38;6.90;;;1.30;;
15833;SDS011;8017;50.812;4.934;2022-12-29T06:59:40;7.27;;;1.77;;
15833;SDS011;8017;50.812;4.934;2022-12-29T07:02:42;9.33;;;1.57;;
15833;SDS011;8017;50.812;4.934;2022-12-29T07:05:44;10.27;;;1.77;;
15833;SDS011;8017;50.812;4.934;2022-12-29T07:08:47;6.73;;;1.37;;
15833;SDS011;8017;50.812;4.934;2022-12-29T07:11:49;7.47;;;1.30;;
15833;SDS011;8017;50.812;4.934;2022-12-29T07:14:51;4.80;;;1.67;;
15833;SDS011;8017;50.812;4.934;2022-12-29T07:17:52;5.17;;;1.63;;
15833;SDS011;8017;50.812;4.934;2022-12-29T07:20:54;9.50;;;1.90;;
15833;SDS011;8017;50.812;4.934;2022-12-29T07:23:58;8.07;;;1.40;;
15833;SDS011;8017;50.812;4.934;2022-12-29T07:26:59;8.37;;;1.90;;
15833;SDS011;8017;50.812;4.934;2022-12-29T07:30:01;12.83;;;2.70;;
15833;SDS011;8017;50.812;4.934;2022-12-29T07:33:04;8.20;;;1.90;;
15833;SDS011;8017;50.812;4.934;2022-12-29T07:36:06;9.37;;;1.90;;
15833;SDS011;8017;50.812;4.934;2022-12-29T07:39:09;6.53;;;1.93;;
15833;SDS011;8017;50.812;4.934;2022-12-29T07:42:11;7.00;;;1.57;;
15833;SDS011;8017;50.812;4.934;2022-12-29T07:45:13;8.20;;;1.73;;
15833;SDS011;8017;50.812;4.934;2022-12-29T07:48:15;10.23;;;2.40;;
15833;SDS011;8017;50.812;4.934;2022-12-29T07:51:17;10.33;;;2.43;;
15833;SDS011;8017;50.812;4.934;2022-12-29T07:54:20;8.83;;;1.87;;
15833;SDS011;8017;50.812;4.934;2022-12-29T07:57:23;9.87;;;2.07;;
15833;SDS011;8017;50.812;4.934;2022-12-29T08:00:25;8.20;;;1.93;;
15833;SDS011;8017;50.812;4.934;2022-12-29T08:03:27;10.13;;;2.50;;
15833;SDS011;8017;50.812;4.934;2022-12-29T08:06:29;6.40;;;2.07;;
15833;SDS011;8017;50.812;4.934;2022-12-29T08:09:32;8.40;;;2.20;;
15833;SDS011;8017;50.812;4.934;2022-12-29T08:12:34;9.07;;;1.87;;
15833;SDS011;8017;50.812;4.934;2022-12-29T08:15:36;7.43;;;1.50;;
15833;SDS011;8017;50.812;4.934;2022-12-29T08:18:38;7.17;;;2.03;;
15833;SDS011;8017;50.812;4.934;2022-12-29T08:21:40;8.17;;;1.83;;
15833;SDS011;8017;50.812;4.934;2022-12-29T08:24:44;5.60;;;1.77;;
15833;SDS011;8017;50.812;4.934;2022-12-29T08:27:45;8.40;;;1.93;;
15833;SDS011;8017;50.812;4.934;2022-12-29T08:30:47;10.80;;;1.97;;
15833;SDS011;8017;50.812;4.934;2022-12-29T08:33:49;5.90;;;1.90;;
15833;SDS011;8017;50.812;4.934;2022-12-29T08:36:51;11.13;;;1.80;;
15833;SDS011;8017;50.812;4.934;2022-12-29T08:39:55;4.60;;;1.63;;
15833;SDS011;8017;50.812;4.934;2022-12-29T08:42:57;8.13;;;2.03;;
15833;SDS011;8017;50.812;4.934;2022-12-29T08:45:59;9.77;;;1.90;;
15833;SDS011;8017;50.812;4.934;2022-12-29T08:49:01;9.43;;;2.03;;
15833;SDS011;8017;50.812;4.934;2022-12-29T08:52:03;9.47;;;2.13;;
15833;SDS011;8017;50.812;4.934;2022-12-29T08:55:07;12.17;;;2.07;;
15833;SDS011;8017;50.812;4.934;2022-12-29T08:58:10;8.43;;;1.80;;
15833;SDS011;8017;50.812;4.934;2022-12-29T09:01:14;8.03;;;1.97;;
15833;SDS011;8017;50.812;4.934;2022-12-29T09:04:16;8.33;;;2.13;;
15833;SDS011;8017;50.812;4.934;2022-12-29T09:07:18;6.73;;;1.83;;
15833;SDS011;8017;50.812;4.934;2022-12-29T09:10:21;5.47;;;1.80;;
15833;SDS011;8017;50.812;4.934;2022-12-29T09:13:23;7.07;;;2.07;;
15833;SDS011;8017;50.812;4.934;2022-12-29T09:16:25;6.50;;;1.77;;
15833;SDS011;8017;50.812;4.934;2022-12-29T09:19:28;8.23;;;1.97;;
15833;SDS011;8017;50.812;4.934;2022-12-29T09:22:29;8.27;;;2.17;;
15833;SDS011;8017;50.812;4.934;2022-12-29T09:25:33;8.30;;;2.77;;
15833;SDS011;8017;50.812;4.934;2022-12-29T09:28:35;9.97;;;2.23;;
15833;SDS011;8017;50.812;4.934;2022-12-29T09:31:37;9.77;;;2.07;;
15833;SDS011;8017;50.812;4.934;2022-12-29T09:34:39;9.70;;;1.93;;
15833;SDS011;8017;50.812;4.934;2022-12-29T09:37:41;8.53;;;2.27;;
15833;SDS011;8017;50.812;4.934;2022-12-29T09:40:45;14.50;;;2.73;;
15833;SDS011;8017;50.812;4.934;2022-12-29T09:43:59;9.33;;;2.17;;
15833;SDS011;8017;50.812;4.934;2022-12-29T09:47:08;7.00;;;2.10;;
15833;SDS011;8017;50.812;4.934;2022-12-29T09:50:15;6.67;;;1.90;;
15833;SDS011;8017;50.812;4.934;2022-12-29T09:53:25;12.17;;;2.47;;
15833;SDS011;8017;50.812;4.934;2022-12-29T09:56:32;13.67;;;3.03;;
15833;SDS011;8017;50.812;4.934;2022-12-29T09:59:36;10.57;;;2.50;;
15833;SDS011;8017;50.812;4.934;2022-12-29T10:02:42;13.00;;;2.23;;
15833;SDS011;8017;50.812;4.934;2022-12-29T10:05:48;8.20;;;2.23;;
15833;SDS011;8017;50.812;4.934;2022-12-29T10:08:56;16.63;;;2.83;;
15833;SDS011;8017;50.812;4.934;2022-12-29T10:12:06;9.33;;;2.50;;
15833;SDS011;8017;50.812;4.934;2022-12-29T10:15:23;8.57;;;2.00;;
15833;SDS011;8017;50.812;4.934;2022-12-29T10:18:41;7.67;;;2.00;;
15833;SDS011;8017;50.812;4.934;2022-12-29T10:22:09;11.07;;;2.20;;
15833;SDS011;8017;50.812;4.934;2022-12-29T10:25:19;9.10;;;2.20;;
15833;SDS011;8017;50.812;4.934;2022-12-29T10:28:34;11.37;;;2.40;;
15833;SDS011;8017;50.812;4.934;2022-12-29T10:31:40;11.27;;;2.63;;
15833;SDS011;8017;50.812;4.934;2022-12-29T10:34:48;8.50;;;2.37;;
15833;SDS011;8017;50.812;4.934;2022-12-29T10:37:56;8.77;;;2.20;;
15833;SDS011;8017;50.812;4.934;2022-12-29T10:41:05;14.40;;;2.47;;
15833;SDS011;8017;50.812;4.934;2022-12-29T10:44:14;7.90;;;2.20;;
15833;SDS011;8017;50.812;4.934;2022-12-29T10:47:19;9.30;;;1.93;;
15833;SDS011;8017;50.812;4.934;2022-12-29T10:50:23;9.53;;;2.33;;
15833;SDS011;8017;50.812;4.934;2022-12-29T10:53:27;11.07;;;2.30;;
15833;SDS011;8017;50.812;4.934;2022-12-29T10:56:38;12.83;;;3.13;;
15833;SDS011;8017;50.812;4.934;2022-12-29T10:59:46;10.63;;;2.47;;
15833;SDS011;8017;50.812;4.934;2022-12-29T11:03:03;7.30;;;2.07;;
15833;SDS011;8017;50.812;4.934;2022-12-29T11:06:30;10.53;;;2.47;;
15833;SDS011;8017;50.812;4.934;2022-12-29T11:09:34;7.93;;;2.33;;
15833;SDS011;8017;50.812;4.934;2022-12-29T11:12:39;7.77;;;2.20;;
15833;SDS011;8017;50.812;4.934;2022-12-29T11:15:43;10.57;;;2.50;;
15833;SDS011;8017;50.812;4.934;2022-12-29T11:18:46;13.93;;;2.23;;
15833;SDS011;8017;50.812;4.934;2022-12-29T11:21:48;10.70;;;2.13;;
15833;SDS011;8017;50.812;4.934;2022-12-29T11:24:51;11.13;;;2.63;;
15833;SDS011;8017;50.812;4.934;2022-12-29T11:27:55;9.30;;;2.20;;
15833;SDS011;8017;50.812;4.934;2022-12-29T11:31:00;9.77;;;1.90;;
15833;SDS011;8017;50.812;4.934;2022-12-29T11:34:06;8.27;;;2.33;;
15833;SDS011;8017;50.812;4.934;2022-12-29T11:37:10;8.83;;;2.30;;
15833;SDS011;8017;50.812;4.934;2022-12-29T11:40:15;8.87;;;2.33;;
15833;SDS011;8017;50.812;4.934;2022-12-29T11:43:21;12.03;;;2.63;;
15833;SDS011;8017;50.812;4.934;2022-12-29T11:46:29;6.17;;;2.10;;
15833;SDS011;8017;50.812;4.934;2022-12-29T11:49:32;8.47;;;2.37;;
15833;SDS011;8017;50.812;4.934;2022-12-29T11:52:35;8.13;;;2.27;;
15833;SDS011;8017;50.812;4.934;2022-12-29T11:55:39;8.77;;;2.13;;
15833;SDS011;8017;50.812;4.934;2022-12-29T11:58:41;7.20;;;1.80;;
15833;SDS011;8017;50.812;4.934;2022-12-29T12:01:45;8.33;;;2.30;;
15833;SDS011;8017;50.812;4.934;2022-12-29T12:04:49;9.70;;;2.50;;
15833;SDS011;8017;50.812;4.934;2022-12-29T12:07:59;9.93;;;2.67;;
15833;SDS011;8017;50.812;4.934;2022-12-29T12:11:08;6.97;;;2.03;;
15833;SDS011;8017;50.812;4.934;2022-12-29T12:14:13;6.73;;;2.00;;
15833;SDS011;8017;50.812;4.934;2022-12-29T12:17:21;7.43;;;1.97;;
15833;SDS011;8017;50.812;4.934;2022-12-29T12:20:28;6.90;;;1.67;;
15833;SDS011;8017;50.812;4.934;2022-12-29T12:23:42;8.67;;;1.83;;
15833;SDS011;8017;50.812;4.934;2022-12-29T12:26:58;11.57;;;2.57;;
15833;SDS011;8017;50.812;4.934;2022-12-29T12:30:03;6.17;;;1.60;;
15833;SDS011;8017;50.812;4.934;2022-12-29T12:33:15;9.93;;;2.20;;
15833;SDS011;8017;50.812;4.934;2022-12-29T12:36:30;7.93;;;1.87;;
15833;SDS011;8017;50.812;4.934;2022-12-29T12:39:46;9.17;;;2.17;;
15833;SDS011;8017;50.812;4.934;2022-12-29T12:43:00;9.17;;;2.50;;
15833;SDS011;8017;50.812;4.934;2022-12-29T12:46:28;10.83;;;2.03;;
15833;SDS011;8017;50.812;4.934;2022-12-29T12:50:04;11.20;;;2.40;;
15833;SDS011;8017;50.812;4.934;2022-12-29T12:53:35;9.10;;;2.73;;
15833;SDS011;8017;50.812;4.934;2022-12-29T12:56:58;12.13;;;2.33;;
15833;SDS011;8017;50.812;4.934;2022-12-29T13:00:13;10.57;;;2.90;;
15833;SDS011;8017;50.812;4.934;2022-12-29T13:03:22;12.60;;;2.30;;
15833;SDS011;8017;50.812;4.934;2022-12-29T13:06:35;8.47;;;2.37;;
15833;SDS011;8017;50.812;4.934;2022-12-29T13:09:48;9.63;;;2.30;;
15833;SDS011;8017;50.812;4.934;2022-12-29T13:13:09;12.33;;;2.43;;
15833;SDS011;8017;50.812;4.934;2022-12-29T13:16:27;14.27;;;2.37;;
15833;SDS011;8017;50.812;4.934;2022-12-29T13:19:36;7.37;;;2.23;;
15833;SDS011;8017;50.812;4.934;2022-12-29T13:22:47;12.23;;;2.33;;
15833;SDS011;8017;50.812;4.934;2022-12-29T13:25:55;8.97;;;1.93;;
15833;SDS011;8017;50.812;4.934;2022-12-29T13:29:06;6.33;;;2.00;;
15833;SDS011;8017;50.812;4.934;2022-12-29T13:32:20;7.43;;;2.30;;
15833;SDS011;8017;50.812;4.934;2022-12-29T13:35:32;6.03;;;1.90;;
15833;SDS011;8017;50.812;4.934;2022-12-29T13:38:53;9.50;;;2.33;;
15833;SDS011;8017;50.812;4.934;2022-12-29T13:42:03;8.43;;;2.10;;
15833;SDS011;8017;50.812;4.934;2022-12-29T13:45:06;7.70;;;1.80;;
15833;SDS011;8017;50.812;4.934;2022-12-29T13:48:15;6.23;;;1.83;;
15833;SDS011;8017;50.812;4.934;2022-12-29T13:51:21;9.63;;;2.60;;
15833;SDS011;8017;50.812;4.934;2022-12-29T13:54:29;11.30;;;2.87;;
15833;SDS011;8017;50.812;4.934;2022-12-29T13:57:41;9.93;;;2.37;;
15833;SDS011;8017;50.812;4.934;2022-12-29T14:00:51;13.30;;;2.93;;
15833;SDS011;8017;50.812;4.934;2022-12-29T14:03:59;14.70;;;3.13;;
15833;SDS011;8017;50.812;4.934;2022-12-29T14:07:04;12.20;;;2.97;;
15833;SDS011;8017;50.812;4.934;2022-12-29T14:10:25;14.17;;;3.50;;
15833;SDS011;8017;50.812;4.934;2022-12-29T14:13:30;10.23;;;2.60;;
15833;SDS011;8017;50.812;4.934;2022-12-29T14:16:32;10.30;;;2.57;;
15833;SDS011;8017;50.812;4.934;2022-12-29T14:19:36;10.40;;;2.60;;
15833;SDS011;8017;50.812;4.934;2022-12-29T14:22:49;15.40;;;3.20;;
15833;SDS011;8017;50.812;4.934;2022-12-29T14:26:00;13.27;;;2.90;;
15833;SDS011;8017;50.812;4.934;2022-12-29T14:29:15;14.80;;;3.17;;
15833;SDS011;8017;50.812;4.934;2022-12-29T14:32:38;15.20;;;3.20;;
15833;SDS011;8017;50.812;4.934;2022-12-29T14:35:41;12.23;;;3.23;;
15833;SDS011;8017;50.812;4.934;2022-12-29T14:38:46;18.50;;;4.50;;
15833;SDS011;8017;50.812;4.934;2022-12-29T14:41:51;15.00;;;3.07;;
15833;SDS011;8017;50.812;4.934;2022-12-29T14:45:02;15.03;;;3.70;;
15833;SDS011;8017;50.812;4.934;2022-12-29T14:48:21;9.90;;;2.67;;
15833;SDS011;8017;50.812;4.934;2022-12-29T14:51:37;11.40;;;2.93;;
15833;SDS011;8017;50.812;4.934;2022-12-29T14:54:45;14.20;;;2.90;;
15833;SDS011;8017;50.812;4.934;2022-12-29T14:57:53;13.30;;;3.33;;
15833;SDS011;8017;50.812;4.934;2022-12-29T15:01:01;15.60;;;3.10;;
15833;SDS011;8017;50.812;4.934;2022-12-29T15:04:05;14.07;;;2.80;;
15833;SDS011;8017;50.812;4.934;2022-12-29T15:07:16;10.13;;;2.93;;
15833;SDS011;8017;50.812;4.934;2022-12-29T15:10:20;8.97;;;2.73;;
15833;SDS011;8017;50.812;4.934;2022-12-29T15:13:32;13.17;;;2.80;;
15833;SDS011;8017;50.812;4.934;2022-12-29T15:16:36;10.70;;;2.60;;
15833;SDS011;8017;50.812;4.934;2022-12-29T15:19:38;10.17;;;2.67;;
15833;SDS011;8017;50.812;4.934;2022-12-29T15:22:41;13.33;;;2.93;;
15833;SDS011;8017;50.812;4.934;2022-12-29T15:25:46;9.20;;;3.20;;
15833;SDS011;8017;50.812;4.934;2022-12-29T15:28:53;15.53;;;3.40;;
15833;SDS011;8017;50.812;4.934;2022-12-29T15:31:57;15.37;;;2.80;;
15833;SDS011;8017;50.812;4.934;2022-12-29T15:35:01;10.30;;;2.93;;
15833;SDS011;8017;50.812;4.934;2022-12-29T15:38:25;17.40;;;3.47;;
15833;SDS011;8017;50.812;4.934;2022-12-29T15:41:30;9.53;;;3.10;;
15833;SDS011;8017;50.812;4.934;2022-12-29T15:44:57;14.40;;;3.33;;
15833;SDS011;8017;50.812;4.934;2022-12-29T15:47:59;14.03;;;3.97;;
15833;SDS011;8017;50.812;4.934;2022-12-29T15:51:02;14.10;;;3.30;;
15833;SDS011;8017;50.812;4.934;2022-12-29T15:54:04;16.43;;;3.50;;
15833;SDS011;8017;50.812;4.934;2022-12-29T15:57:10;13.93;;;3.40;;
15833;SDS011;8017;50.812;4.934;2022-12-29T16:00:25;7.97;;;2.37;;
15833;SDS011;8017;50.812;4.934;2022-12-29T16:03:29;6.67;;;2.43;;
15833;SDS011;8017;50.812;4.934;2022-12-29T16:06:34;7.43;;;1.40;;
15833;SDS011;8017;50.812;4.934;2022-12-29T16:09:41;6.27;;;1.80;;
15833;SDS011;8017;50.812;4.934;2022-12-29T16:12:44;7.90;;;2.13;;
15833;SDS011;8017;50.812;4.934;2022-12-29T16:15:48;11.13;;;2.63;;
15833;SDS011;8017;50.812;4.934;2022-12-29T16:18:53;10.87;;;2.33;;
15833;SDS011;8017;50.812;4.934;2022-12-29T16:21:57;11.70;;;2.40;;
15833;SDS011;8017;50.812;4.934;2022-12-29T16:25:06;7.07;;;2.70;;
15833;SDS011;8017;50.812;4.934;2022-12-29T16:28:18;8.63;;;2.73;;
15833;SDS011;8017;50.812;4.934;2022-12-29T16:31:24;13.13;;;2.80;;
15833;SDS011;8017;50.812;4.934;2022-12-29T16:34:33;10.90;;;2.63;;
15833;SDS011;8017;50.812;4.934;2022-12-29T16:37:46;15.50;;;3.07;;
15833;SDS011;8017;50.812;4.934;2022-12-29T16:40:50;12.47;;;3.30;;
15833;SDS011;8017;50.812;4.934;2022-12-29T16:44:11;9.87;;;2.50;;
15833;SDS011;8017;50.812;4.934;2022-12-29T16:47:19;11.20;;;2.23;;
15833;SDS011;8017;50.812;4.934;2022-12-29T16:50:22;8.97;;;3.47;;
15833;SDS011;8017;50.812;4.934;2022-12-29T16:53:27;12.50;;;2.70;;
15833;SDS011;8017;50.812;4.934;2022-12-29T16:56:34;13.10;;;3.00;;
15833;SDS011;8017;50.812;4.934;2022-12-29T16:59:39;10.80;;;2.67;;
15833;SDS011;8017;50.812;4.934;2022-12-29T17:02:44;11.13;;;2.93;;
15833;SDS011;8017;50.812;4.934;2022-12-29T17:05:47;12.43;;;2.70;;
15833;SDS011;8017;50.812;4.934;2022-12-29T17:08:49;10.80;;;3.07;;
15833;SDS011;8017;50.812;4.934;2022-12-29T17:11:52;13.20;;;3.03;;
15833;SDS011;8017;50.812;4.934;2022-12-29T17:14:57;14.70;;;3.63;;
15833;SDS011;8017;50.812;4.934;2022-12-29T17:18:02;14.73;;;2.70;;
15833;SDS011;8017;50.812;4.934;2022-12-29T17:21:04;9.57;;;2.73;;
15833;SDS011;8017;50.812;4.934;2022-12-29T17:24:07;14.00;;;2.70;;
15833;SDS011;8017;50.812;4.934;2022-12-29T17:27:20;5.43;;;2.20;;
15833;SDS011;8017;50.812;4.934;2022-12-29T17:30:25;6.60;;;1.93;;
15833;SDS011;8017;50.812;4.934;2022-12-29T17:33:31;8.53;;;2.80;;
15833;SDS011;8017;50.812;4.934;2022-12-29T17:36:36;8.17;;;2.50;;
15833;SDS011;8017;50.812;4.934;2022-12-29T17:39:38;8.47;;;2.50;;
15833;SDS011;8017;50.812;4.934;2022-12-29T17:42:41;9.60;;;2.43;;
15833;SDS011;8017;50.812;4.934;2022-12-29T17:45:46;7.03;;;2.30;;
15833;SDS011;8017;50.812;4.934;2022-12-29T17:48:52;9.10;;;2.40;;
15833;SDS011;8017;50.812;4.934;2022-12-29T17:51:54;9.10;;;2.60;;
15833;SDS011;8017;50.812;4.934;2022-12-29T17:54:57;9.67;;;2.60;;
15833;SDS011;8017;50.812;4.934;2022-12-29T17:58:00;9.53;;;2.73;;
15833;SDS011;8017;50.812;4.934;2022-12-29T18:01:02;8.10;;;2.13;;
15833;SDS011;8017;50.812;4.934;2022-12-29T18:04:07;12.63;;;2.63;;
15833;SDS011;8017;50.812;4.934;2022-12-29T18:07:12;10.83;;;2.40;;
15833;SDS011;8017;50.812;4.934;2022-12-29T18:10:14;9.37;;;2.83;;
15833;SDS011;8017;50.812;4.934;2022-12-29T18:13:18;12.70;;;2.63;;
15833;SDS011;8017;50.812;4.934;2022-12-29T18:16:21;7.40;;;2.77;;
15833;SDS011;8017;50.812;4.934;2022-12-29T18:19:25;7.07;;;2.43;;
15833;SDS011;8017;50.812;4.934;2022-12-29T18:22:27;7.93;;;3.00;;
15833;SDS011;8017;50.812;4.934;2022-12-29T18:25:29;8.77;;;2.80;;
15833;SDS011;8017;50.812;4.934;2022-12-29T18:28:40;8.83;;;2.40;;
15833;SDS011;8017;50.812;4.934;2022-12-29T18:31:43;12.30;;;2.80;;
15833;SDS011;8017;50.812;4.934;2022-12-29T18:34:47;12.27;;;3.20;;
15833;SDS011;8017;50.812;4.934;2022-12-29T18:37:49;10.00;;;2.93;;
15833;SDS011;8017;50.812;4.934;2022-12-29T18:40:51;12.50;;;3.23;;
15833;SDS011;8017;50.812;4.934;2022-12-29T18:43:53;9.57;;;2.87;;
15833;SDS011;8017;50.812;4.934;2022-12-29T18:46:55;14.17;;;4.40;;
15833;SDS011;8017;50.812;4.934;2022-12-29T18:50:01;12.53;;;3.40;;
15833;SDS011;8017;50.812;4.934;2022-12-29T18:53:03;9.07;;;2.60;;
15833;SDS011;8017;50.812;4.934;2022-12-29T18:56:06;12.53;;;2.93;;